createdAt,value
2018-04-12T00:01:15.766Z,7.50
2018-04-12T00:03:44.352Z,7.50
2018-04-12T00:06:13.715Z,7.40
2018-04-12T00:08:45.057Z,7.50
2018-04-12T00:11:14.387Z,7.50
2018-04-12T00:13:47.195Z,7.40
2018-04-12T00:16:16.600Z,7.40
2018-04-12T00:21:18.346Z,7.40
2018-04-12T00:23:51.788Z,7.40
2018-04-12T00:26:21.826Z,7.40
2018-04-12T00:28:55.248Z,7.50
2018-04-12T00:31:24.681Z,7.40
2018-04-12T00:33:57.373Z,7.30
2018-04-12T00:36:26.360Z,7.20
2018-04-12T00:38:59.397Z,7.20
2018-04-12T00:41:28.707Z,7.20
2018-04-12T00:44:02.642Z,7.10
2018-04-12T00:46:31.201Z,7.00
2018-04-12T00:49:05.872Z,6.90
2018-04-12T00:54:09.536Z,6.90
2018-04-12T00:56:38.426Z,6.80
2018-04-12T00:59:11.144Z,6.80
2018-04-12T01:01:41.465Z,7.10
2018-04-12T01:04:13.868Z,6.80
2018-04-12T01:06:42.806Z,6.70
2018-04-12T01:09:16.826Z,6.80
2018-04-12T01:11:46.699Z,6.80
2018-04-12T01:14:17.509Z,7.20
2018-04-12T01:16:47.121Z,6.60
2018-04-12T01:21:49.431Z,6.70
2018-04-12T01:24:21.809Z,6.70
2018-04-12T01:26:52.106Z,5.90
2018-04-12T01:31:53.553Z,6.90
2018-04-12T01:34:27.190Z,6.30
2018-04-12T01:36:56.437Z,7.00
2018-04-12T01:39:30.388Z,7.00
2018-04-12T01:41:58.929Z,6.90
2018-04-12T01:44:32.659Z,6.90
2018-04-12T01:47:01.154Z,6.80
2018-04-12T01:49:34.291Z,6.80
2018-04-12T01:52:03.033Z,6.80
2018-04-12T01:54:36.372Z,6.80
2018-04-12T01:57:06.010Z,6.80
2018-04-12T01:59:39.545Z,6.80
2018-04-12T02:02:08.057Z,6.80
2018-04-12T02:04:41.244Z,6.70
2018-04-12T02:09:44.200Z,6.70
2018-04-12T02:12:12.793Z,6.80
2018-04-12T02:14:46.005Z,6.80
2018-04-12T02:17:16.044Z,6.80
2018-04-12T02:19:49.030Z,6.70
2018-04-12T02:22:17.872Z,6.70
2018-04-12T02:24:51.201Z,6.70
2018-04-12T02:30:02.025Z,7.20
2018-04-12T02:32:31.164Z,6.40
2018-04-12T02:34:59.692Z,6.30
2018-04-12T02:37:28.205Z,6.30
2018-04-12T02:39:58.158Z,7.10
2018-04-12T02:42:27.888Z,6.00
2018-04-12T02:45:01.217Z,5.90
2018-04-12T02:47:30.093Z,5.80
2018-04-12T02:50:12.452Z,5.70
2018-04-12T02:52:42.416Z,5.70
2018-04-12T02:55:10.917Z,5.70
2018-04-12T02:57:40.907Z,5.70
2018-04-12T03:02:39.214Z,5.70
2018-04-12T03:05:11.329Z,5.70
2018-04-12T03:07:41.236Z,5.80
2018-04-12T03:10:15.660Z,5.80
2018-04-12T03:15:15.637Z,5.70
2018-04-12T03:17:44.166Z,5.70
2018-04-12T03:20:17.637Z,5.70
2018-04-12T03:22:46.130Z,5.70
2018-04-12T03:25:28.848Z,5.70
2018-04-12T03:27:57.389Z,5.80
2018-04-12T03:30:25.943Z,5.90
2018-04-12T03:32:56.219Z,5.80
2018-04-12T03:35:24.733Z,5.80
2018-04-12T03:37:54.001Z,5.80
2018-04-12T03:40:25.991Z,5.50
2018-04-12T03:42:54.474Z,5.80
2018-04-12T03:45:28.329Z,5.70
2018-04-12T03:47:57.133Z,5.70
2018-04-12T03:50:29.995Z,5.80
2018-04-12T03:52:59.357Z,5.70
2018-04-12T03:55:33.205Z,5.70
2018-04-12T03:58:01.688Z,5.60
2018-04-12T04:00:35.218Z,5.70
2018-04-12T04:03:03.713Z,5.70
2018-04-12T04:05:38.421Z,5.50
2018-04-12T04:08:07.185Z,5.70
2018-04-12T04:10:48.663Z,5.70
2018-04-12T04:13:19.009Z,5.70
2018-04-12T04:18:01.406Z,5.60
2018-04-12T04:21:06.787Z,5.70
2018-04-12T04:26:06.448Z,5.50
2018-04-12T04:28:36.065Z,5.50
2018-04-12T04:31:04.591Z,5.60
2018-04-12T04:33:33.477Z,5.60
2018-04-12T04:36:01.962Z,5.40
2018-04-12T04:38:31.280Z,5.50
2018-04-12T04:41:00.062Z,5.60
2018-04-12T04:43:28.955Z,5.60
2018-04-12T04:45:57.834Z,4.10
2018-04-12T04:48:26.601Z,5.60
2018-04-12T04:51:09.505Z,5.70
2018-04-12T04:53:38.359Z,5.80
2018-04-12T04:58:36.844Z,5.70
2018-04-12T05:01:06.470Z,5.90
2018-04-12T05:03:37.954Z,5.60
2018-04-12T05:06:09.209Z,5.60
2018-04-12T05:08:38.489Z,5.70
2018-04-12T05:11:11.714Z,5.70
2018-04-12T05:13:41.004Z,5.70
2018-04-12T05:16:13.545Z,5.70
2018-04-12T05:21:15.709Z,5.70
2018-04-12T05:26:17.909Z,5.90
2018-04-12T05:31:20.204Z,5.90
2018-04-12T05:36:23.166Z,6.10
2018-04-12T05:38:52.493Z,6.20
2018-04-12T05:41:23.590Z,6.20
2018-04-12T05:43:52.089Z,6.20
2018-04-12T05:46:26.104Z,6.20
2018-04-12T05:51:27.951Z,6.30
2018-04-12T05:53:56.460Z,6.40
2018-04-12T05:56:30.390Z,6.40
2018-04-12T06:01:32.170Z,7.20
2018-04-12T06:04:01.509Z,6.50
2018-04-12T06:06:34.929Z,7.80
2018-04-12T06:22:16.187Z,7.70
2018-04-12T06:24:46.612Z,7.60
2018-04-12T06:27:17.054Z,7.70
2018-04-12T06:29:47.612Z,7.70
2018-04-12T06:32:16.932Z,7.80
2018-04-12T06:34:49.318Z,8.50
2018-04-12T06:37:17.869Z,7.70
2018-04-12T06:39:51.428Z,7.80
2018-04-12T06:42:21.329Z,8.00
2018-04-12T06:44:55.061Z,8.00
2018-04-12T06:47:23.613Z,8.00
2018-04-12T06:49:57.161Z,8.00
2018-04-12T06:52:26.065Z,8.00
2018-04-12T06:55:00.059Z,8.10
2018-04-12T07:00:01.462Z,8.10
2018-04-12T07:05:03.910Z,8.40
2018-04-12T07:07:33.191Z,8.30
2018-04-12T07:10:06.860Z,8.50
2018-04-12T07:12:37.118Z,8.50
2018-04-12T07:15:18.885Z,8.40
2018-04-12T07:17:48.354Z,8.50
2018-04-12T07:20:19.306Z,8.80
2018-04-12T07:22:48.809Z,8.80
2018-04-12T07:25:17.656Z,9.80
2018-04-12T07:27:47.941Z,8.90
2018-04-12T07:30:17.995Z,9.00
2018-04-12T07:32:48.745Z,8.90
2018-04-12T07:35:18.112Z,9.00
2018-04-12T07:37:46.983Z,9.10
2018-04-12T07:40:20.757Z,9.10
2018-04-12T07:42:51.252Z,9.30
2018-04-12T07:45:23.224Z,9.60
2018-04-12T07:47:53.188Z,9.80
2018-04-12T07:50:24.925Z,10.30
2018-04-12T07:52:53.458Z,10.10
2018-04-12T07:55:34.891Z,10.70
2018-04-12T07:58:04.203Z,10.70
2018-04-12T08:03:03.248Z,11.20
2018-04-12T08:05:31.783Z,11.30
2018-04-12T08:10:32.338Z,11.30
2018-04-12T08:13:01.235Z,11.30
2018-04-12T08:15:35.645Z,11.30
2018-04-12T08:18:04.153Z,11.50
2018-04-12T08:20:37.624Z,11.40
2018-04-12T08:23:06.548Z,11.50
2018-04-12T08:25:42.008Z,11.50
2018-04-12T08:28:11.259Z,11.60
2018-04-12T08:30:42.537Z,11.80
2018-04-12T08:33:11.426Z,12.20
2018-04-12T08:35:52.587Z,12.10
2018-04-12T08:38:22.733Z,12.00
2018-04-12T08:40:51.201Z,11.80
2018-04-12T08:43:19.723Z,11.60
2018-04-12T08:45:50.836Z,11.80
2018-04-12T08:50:53.611Z,12.10
2018-04-12T08:53:23.247Z,12.10
2018-04-12T08:58:22.226Z,12.20
2018-04-12T09:00:56.431Z,12.40
2018-04-12T09:03:24.948Z,12.80
2018-04-12T09:05:58.075Z,12.80
2018-04-12T09:08:27.595Z,13.00
2018-04-12T09:11:00.957Z,13.20
2018-04-12T09:16:03.647Z,13.40
2018-04-12T09:18:32.857Z,13.40
2018-04-12T09:21:03.633Z,13.50
2018-04-12T09:23:32.104Z,14.80
2018-04-12T09:26:01.719Z,13.90
2018-04-12T09:31:00.134Z,13.90
2018-04-12T09:33:29.026Z,14.10
2018-04-12T09:35:59.048Z,14.20
2018-04-12T09:38:27.631Z,13.50
2018-04-12T09:40:56.492Z,14.50
2018-04-12T09:43:26.163Z,14.10
2018-04-12T09:45:55.066Z,14.50
2018-04-12T09:48:24.607Z,14.30
2018-04-12T09:50:53.087Z,14.00
2018-04-12T09:53:22.339Z,13.70
2018-04-12T09:55:51.556Z,14.20
2018-04-12T10:00:56.053Z,14.40
2018-04-12T10:03:27.351Z,15.40
2018-04-12T10:06:00.954Z,15.80
2018-04-12T10:08:30.383Z,16.00
2018-04-12T10:10:59.674Z,15.50
2018-04-12T10:13:31.768Z,15.30
2018-04-12T10:18:33.943Z,15.10
2018-04-12T10:21:02.409Z,15.40
2018-04-12T10:23:43.860Z,16.20
2018-04-12T10:26:14.021Z,16.00
2018-04-12T10:28:42.609Z,15.50
2018-04-12T10:31:11.104Z,15.50
2018-04-12T10:33:41.002Z,16.20
2018-04-12T10:36:09.497Z,16.00
2018-04-12T10:38:42.425Z,15.30
2018-04-12T10:41:11.729Z,15.20
2018-04-12T10:43:45.347Z,15.30
2018-04-12T10:46:13.906Z,15.40
2018-04-12T10:48:47.296Z,15.40
2018-04-12T10:51:16.200Z,15.40
2018-04-12T10:53:51.421Z,15.20
2018-04-12T10:58:53.359Z,15.30
2018-04-12T11:01:21.928Z,15.30
2018-04-12T11:04:03.795Z,15.10
2018-04-12T11:06:33.053Z,15.20
2018-04-12T11:09:02.792Z,15.50
2018-04-12T11:11:32.200Z,15.40
2018-04-12T11:14:01.136Z,15.60
2018-04-12T11:16:30.011Z,15.50
2018-04-12T11:19:11.480Z,16.00
2018-04-12T11:21:40.050Z,15.90
2018-04-12T11:24:08.664Z,17.40
2018-04-12T11:26:37.208Z,16.80
2018-04-12T11:29:09.487Z,16.90
2018-04-12T11:31:38.432Z,17.00
2018-04-12T11:36:41.956Z,16.40
2018-04-12T11:39:14.430Z,16.60
2018-04-12T11:41:44.143Z,16.10
2018-04-12T11:44:17.554Z,16.20
2018-04-12T11:46:47.916Z,16.10
2018-04-12T11:49:18.259Z,16.00
2018-04-12T11:51:47.464Z,16.30
2018-04-12T11:54:23.562Z,16.50
2018-04-12T11:56:53.708Z,16.40
2018-04-12T11:59:22.998Z,15.90
2018-04-12T12:01:52.237Z,16.30
2018-04-12T12:04:24.826Z,16.60
2018-04-12T12:06:53.789Z,16.30
2018-04-12T12:09:27.145Z,16.10
2018-04-12T12:11:56.566Z,16.20
2018-04-12T12:14:38.078Z,16.20
2018-04-12T12:17:06.856Z,16.60
2018-04-12T12:19:36.115Z,17.00
2018-04-12T12:22:04.648Z,16.50
2018-04-12T12:24:34.425Z,16.80
2018-04-12T12:27:03.301Z,16.80
2018-04-12T12:29:36.105Z,16.70
2018-04-12T12:32:05.318Z,16.80
2018-04-12T12:34:38.043Z,17.00
2018-04-12T12:37:07.336Z,17.10
2018-04-12T12:39:40.759Z,17.20
2018-04-12T12:42:09.658Z,17.10
2018-04-12T12:44:43.607Z,17.20
2018-04-12T12:47:12.800Z,17.50
2018-04-12T12:49:45.485Z,18.30
2018-04-12T12:52:15.379Z,17.40
2018-04-12T12:57:18.638Z,17.30
2018-04-12T12:59:59.860Z,17.40
2018-04-12T13:02:28.867Z,17.30
2018-04-12T13:04:58.587Z,17.70
2018-04-12T13:07:27.147Z,17.80
2018-04-12T13:09:57.218Z,17.80
2018-04-12T13:12:26.131Z,17.30
2018-04-12T13:14:58.482Z,17.10
2018-04-12T13:17:26.968Z,17.30
2018-04-12T13:20:00.795Z,17.50
2018-04-12T13:22:30.029Z,17.60
2018-04-12T13:25:03.961Z,17.90
2018-04-12T13:27:32.988Z,18.00
2018-04-12T13:30:15.192Z,18.10
2018-04-12T13:32:44.893Z,18.10
2018-04-12T13:35:14.194Z,18.10
2018-04-12T13:37:43.856Z,18.30
2018-04-12T13:42:42.414Z,18.30
2018-04-12T13:45:14.365Z,18.20
2018-04-12T13:47:44.338Z,18.10
2018-04-12T13:50:26.258Z,18.10
2018-04-12T13:55:24.753Z,18.20
2018-04-12T13:57:53.293Z,18.30
2018-04-12T14:00:25.004Z,18.30
2018-04-12T14:02:54.328Z,18.40
2018-04-12T14:05:24.076Z,18.30
2018-04-12T14:07:52.656Z,18.50
2018-04-12T14:10:34.461Z,18.70
2018-04-12T14:13:04.809Z,19.10
2018-04-12T14:28:46.308Z,19.80
2018-04-12T14:31:16.303Z,19.20
2018-04-12T14:33:45.252Z,18.90
2018-04-12T14:36:13.817Z,18.70
2018-04-12T14:38:43.073Z,18.50
2018-04-12T14:41:12.547Z,19.80
2018-04-12T14:43:41.435Z,18.70
2018-04-12T14:46:10.208Z,18.80
2018-04-12T14:48:43.088Z,19.10
2018-04-12T14:51:11.632Z,19.20
2018-04-12T14:56:15.102Z,19.50
2018-04-12T14:58:48.178Z,19.40
2018-04-12T15:01:20.988Z,19.50
2018-04-12T15:03:50.419Z,19.40
2018-04-12T15:09:01.441Z,19.10
2018-04-12T15:11:30.335Z,19.00
2018-04-12T15:13:58.831Z,18.90
2018-04-12T15:16:27.305Z,18.90
2018-04-12T15:18:59.274Z,18.80
2018-04-12T15:21:27.791Z,19.00
2018-04-12T15:24:01.276Z,19.00
2018-04-12T15:29:05.086Z,18.90
2018-04-12T15:31:34.812Z,18.80
2018-04-12T15:34:07.344Z,18.80
2018-04-12T15:36:36.634Z,18.80
2018-04-12T15:39:09.663Z,18.40
2018-04-12T15:41:38.536Z,18.90
2018-04-12T15:46:39.951Z,19.10
2018-04-12T15:49:13.930Z,19.00
2018-04-12T15:51:42.421Z,19.20
2018-04-12T15:54:15.920Z,19.30
2018-04-12T15:56:44.784Z,19.50
2018-04-12T15:59:26.251Z,19.70
2018-04-12T16:01:55.084Z,19.70
2018-04-12T16:04:23.632Z,19.80
2018-04-12T16:11:51.732Z,19.90
2018-04-12T16:14:23.974Z,19.90
2018-04-12T16:16:52.913Z,19.90
2018-04-12T16:19:26.300Z,19.90
2018-04-12T16:21:54.843Z,19.90
2018-04-12T16:24:36.933Z,19.80
2018-04-12T16:29:39.926Z,19.50
2018-04-12T16:32:09.967Z,19.50
2018-04-12T16:34:38.447Z,20.00
2018-04-12T16:37:06.963Z,19.20
2018-04-12T16:39:37.094Z,19.20
2018-04-12T16:42:05.636Z,19.30
2018-04-12T16:44:38.049Z,19.30
2018-04-12T16:47:07.288Z,17.80
2018-04-12T16:49:38.505Z,19.10
2018-04-12T16:52:08.571Z,19.00
2018-04-12T16:54:41.693Z,18.90
2018-04-12T16:59:44.427Z,18.70
2018-04-12T17:02:13.272Z,18.70
2018-04-12T17:04:46.120Z,18.40
2018-04-12T17:07:15.387Z,18.40
2018-04-12T17:09:51.954Z,18.30
2018-04-12T17:12:20.451Z,18.10
2018-04-12T17:14:51.522Z,18.00
2018-04-12T17:17:20.075Z,17.90
2018-04-12T17:19:53.620Z,17.90
2018-04-12T17:22:22.420Z,17.80
2018-04-12T17:24:58.321Z,17.80
2018-04-12T17:27:26.856Z,17.80
2018-04-12T17:35:00.803Z,17.70
2018-04-12T17:37:30.892Z,17.60
2018-04-12T17:40:09.093Z,17.50
2018-04-12T17:42:37.574Z,17.40
2018-04-12T17:45:07.815Z,17.30
2018-04-12T17:47:36.725Z,17.10
2018-04-12T17:50:18.205Z,18.10
2018-04-12T17:52:47.151Z,16.90
2018-04-12T17:55:15.704Z,16.80
2018-04-12T17:57:45.321Z,16.70
2018-04-12T18:00:14.554Z,16.60
2018-04-12T18:02:43.069Z,16.40
2018-04-12T18:05:24.495Z,16.30
2018-04-12T18:07:53.836Z,16.20
2018-04-12T18:10:22.376Z,16.10
2018-04-12T18:12:52.016Z,16.10
2018-04-12T18:15:20.776Z,16.00
2018-04-12T18:17:50.018Z,16.00
2018-04-12T18:20:31.163Z,15.90
2018-04-12T18:23:00.957Z,15.80
2018-04-12T18:28:00.641Z,15.70
2018-04-12T18:30:29.417Z,15.50
2018-04-12T18:32:58.431Z,15.40
2018-04-12T18:35:28.515Z,15.30
2018-04-12T18:37:57.842Z,15.20
2018-04-12T18:40:30.251Z,15.20
2018-04-12T18:42:59.441Z,15.20
2018-04-12T18:45:41.024Z,15.00
2018-04-12T18:50:39.773Z,15.00
2018-04-12T18:53:08.375Z,14.90
2018-04-12T18:55:38.150Z,14.80
2018-04-12T18:58:07.945Z,14.80
2018-04-12T19:00:40.596Z,14.70
2018-04-12T19:03:09.557Z,14.70
2018-04-12T19:05:42.118Z,14.80
2018-04-12T19:08:11.835Z,14.60
2018-04-12T19:10:44.684Z,14.50
2018-04-12T19:13:13.168Z,14.50
2018-04-12T19:15:55.214Z,14.40
2018-04-12T19:18:24.804Z,14.30
2018-04-12T19:20:53.351Z,14.20
2018-04-12T19:23:21.853Z,14.20
2018-04-12T19:25:52.460Z,14.10
2018-04-12T19:28:22.088Z,14.10
2018-04-12T19:33:24.300Z,14.00
2018-04-12T19:36:05.456Z,14.00
2018-04-12T19:38:35.208Z,13.90
2018-04-12T19:41:04.462Z,13.80
2018-04-12T19:43:34.552Z,13.80
2018-04-12T19:46:03.412Z,13.70
2018-04-12T19:48:32.719Z,13.60
2018-04-12T19:51:04.741Z,13.60
2018-04-12T19:53:33.526Z,13.50
2018-04-12T19:56:09.662Z,13.50
2018-04-12T19:58:38.148Z,13.40
2018-04-12T20:01:11.386Z,12.70
2018-04-12T20:03:40.689Z,13.20
2018-04-12T20:06:13.541Z,13.10
2018-04-12T20:08:43.068Z,13.00
2018-04-12T20:11:15.039Z,13.00
2018-04-12T20:13:43.555Z,13.00
2018-04-12T20:16:17.080Z,13.00
2018-04-12T20:21:19.095Z,13.00
2018-04-12T20:23:47.595Z,12.80
2018-04-12T20:26:29.261Z,12.70
2018-04-12T20:28:58.848Z,12.60
2018-04-12T20:31:27.340Z,12.40
2018-04-12T20:33:56.102Z,12.20
2018-04-12T20:36:25.984Z,12.00
2018-04-12T20:38:54.524Z,11.90
2018-04-12T20:41:27.713Z,11.40
2018-04-12T20:43:56.943Z,11.70
2018-04-12T20:46:29.671Z,11.60
2018-04-12T20:48:59.651Z,11.50
2018-04-12T20:51:40.877Z,11.40
2018-04-12T20:54:11.928Z,11.50
2018-04-12T20:56:41.908Z,11.40
2018-04-12T21:01:40.961Z,11.40
2018-04-12T21:04:09.497Z,11.40
2018-04-12T21:06:39.121Z,11.50
2018-04-12T21:11:42.343Z,11.50
2018-04-12T21:14:11.974Z,11.40
2018-04-12T21:16:43.108Z,11.40
2018-04-12T21:19:12.045Z,11.40
2018-04-12T21:21:45.048Z,11.30
2018-04-12T21:24:14.562Z,11.40
2018-04-12T21:26:47.983Z,11.40
2018-04-12T21:29:16.860Z,11.40
2018-04-12T21:31:50.616Z,11.40
2018-04-12T21:34:20.289Z,11.30
2018-04-12T21:36:52.962Z,11.10
2018-04-12T21:39:22.477Z,11.00
2018-04-12T21:41:55.519Z,10.40
2018-04-12T21:44:23.993Z,10.90
2018-04-12T21:47:01.095Z,10.90
2018-04-12T21:52:00.462Z,10.80
2018-04-12T21:54:29.356Z,10.70
2018-04-12T21:57:03.682Z,10.50
2018-04-12T21:59:32.176Z,10.40
2018-04-12T22:02:05.495Z,10.40
2018-04-12T22:04:35.319Z,10.20
2018-04-12T22:07:17.475Z,10.20
2018-04-12T22:09:47.184Z,10.10
2018-04-12T22:14:47.081Z,9.90
2018-04-12T22:17:17.063Z,9.90
2018-04-12T22:19:47.240Z,9.80
2018-04-12T22:22:15.928Z,10.00
2018-04-12T22:24:45.056Z,9.90
2018-04-12T22:27:17.663Z,9.80
2018-04-12T22:29:47.812Z,9.80
2018-04-12T22:32:20.795Z,9.70
2018-04-12T22:34:49.407Z,9.70
2018-04-12T22:37:22.600Z,8.10
2018-04-12T22:39:52.272Z,9.60
2018-04-12T22:42:24.812Z,9.60
2018-04-12T22:44:54.200Z,9.50
2018-04-12T22:47:35.530Z,9.50
2018-04-12T22:50:04.204Z,9.40
2018-04-12T22:52:33.101Z,9.40
2018-04-12T22:57:31.298Z,9.40
2018-04-12T23:00:00.005Z,9.30
2018-04-12T23:02:33.368Z,9.20
2018-04-12T23:05:03.399Z,9.20
2018-04-12T23:07:35.647Z,9.20
2018-04-12T23:10:04.273Z,9.00
2018-04-12T23:12:37.152Z,9.10
2018-04-12T23:20:09.095Z,9.00
2018-04-12T23:22:42.316Z,9.00
2018-04-12T23:25:10.962Z,9.10
2018-04-12T23:27:44.409Z,9.10
2018-04-12T23:30:13.812Z,9.00
2018-04-12T23:32:46.608Z,9.10
2018-04-12T23:35:15.595Z,9.10
2018-04-12T23:37:48.018Z,9.70
2018-04-12T23:40:17.024Z,9.20
2018-04-12T23:42:49.732Z,9.10
2018-04-12T23:45:19.127Z,9.00
2018-04-12T23:50:23.963Z,8.70
2018-04-12T23:52:56.757Z,8.80
2018-04-12T23:55:25.412Z,8.80
2018-04-12T23:57:59.353Z,8.70
